Terminal Aerodrome Forecast
Issued by NWS Cleveland, OH

Home | Current Version | Previous Version | Text Only | Print | Product List | Glossary On
Versions: 1 2 3 4 5 6 7 8 9 10 11 12 13
000
FTUS41 KCLE 021727
TAFTOL
TAF
KTOL 021727Z 0218/0318 23015G25KT P6SM FEW050
     FM030300 23012G22KT P6SM VCTS BKN035CB OVC080
      TEMPO 0305/0307 31020G30KT 2SM -TSRA BR BKN035CB OVC080
     FM030800 24010KT P6SM SCT020 BKN050 OVC120
      TEMPO 0312/0315 BKN020
     FM031500 27010KT P6SM BKN035=

USA.gov is the U.S. government's official web portal to all federal, state and local government web resources and services.